Terminal Aerodrome Forecast
Issued by NWS

Home | Current Version | Previous Version | Text Only | Print | Product List | Glossary On
Versions: 1 2 3 4 5 6 7 8 9 10 11 12 13 14
084
FTUS42 TJSJ 291120
TAFJSJ
TAF
TJSJ 291120Z 2912/3012 00000KT P6SM VCSH FEW025 SCT080
     FM291400 08010KT P6SM VCTS SCT030CB BKN060
     FM292330 11005KT P6SM VCSH SCT025=

USA.gov is the U.S. government's official web portal to all federal, state and local government web resources and services.